Time;durP1;ratioP1;P1;durP2;ratioP2;P2;SDS_P1;SDS_P2;PMS_P1;PMS_P2;Temp;Humidity;BMP_temperature;BMP_pressure;BME280_temperature;BME280_humidity;BME280_pressure;Samples;Min_cycle;Max_cycle;Signal;HPM_P1;HPM_P2
2022/09/06 00:01:43;;;;;;;5.13;4.30;;;17.60;99.80;;;17.99;64.51;95626.19;6175344;23;21004;-56
2022/09/06 00:04:12;;;;;;;6.73;3.37;;;17.60;99.90;;;17.97;64.58;95628.16;6175108;23;20430;-56
2022/09/06 00:06:39;;;;;;;4.10;3.70;;;17.60;99.90;;;17.94;64.49;95623.19;6175161;23;20461;-57
2022/09/06 00:09:06;;;;;;;5.83;3.70;;;17.60;99.80;;;17.90;64.51;95625.34;6175069;23;20541;-53
2022/09/06 00:11:34;;;;;;;9.13;3.50;;;17.50;99.90;;;17.87;64.53;95630.97;6175816;23;20410;-56
2022/09/06 00:14:01;;;;;;;5.47;3.60;;;17.50;99.90;;;17.84;64.75;95634.78;6175657;23;20429;-55
2022/09/06 00:16:28;;;;;;;4.70;3.77;;;17.50;99.90;;;17.80;65.09;95630.81;6176108;23;20405;-55
2022/09/06 00:18:56;;;;;;;4.87;3.37;;;17.40;99.80;;;17.77;65.11;95628.50;6176847;23;20952;-57
2022/09/06 00:21:26;;;;;;;8.50;3.40;;;17.40;99.80;;;17.74;64.79;95626.97;6175506;23;20483;-53
2022/09/06 00:23:53;;;;;;;8.00;3.83;;;17.40;99.90;;;17.71;64.51;95631.81;6175680;23;20425;-56
2022/09/06 00:26:21;;;;;;;8.63;3.73;;;17.40;99.90;;;17.69;64.57;95623.16;6175510;23;20405;-53
2022/09/06 00:28:48;;;;;;;4.10;3.70;;;17.30;99.90;;;17.65;64.90;95614.66;6175993;23;20425;-56
2022/09/06 00:31:17;;;;;;;4.83;4.00;;;17.30;99.90;;;17.61;64.67;95629.28;6174650;23;20883;-53
2022/09/06 00:33:44;;;;;;;4.77;3.77;;;17.30;99.90;;;17.58;65.17;95623.47;6175256;23;20491;-56
2022/09/06 00:36:13;;;;;;;3.43;3.23;;;17.20;99.90;;;17.54;65.25;95626.47;6175387;23;20620;-54
2022/09/06 00:38:41;;;;;;;3.87;3.50;;;17.20;99.90;;;17.52;65.47;95624.94;6175473;23;20751;-55
2022/09/06 00:41:11;;;;;;;4.13;3.70;;;17.20;99.90;;;17.49;65.29;95630.59;6174415;23;20484;-56
2022/09/06 00:43:38;;;;;;;8.30;4.17;;;17.20;99.90;;;17.42;65.58;95630.44;6175838;23;20753;-61
2022/09/06 00:46:05;;;;;;;9.20;3.77;;;17.10;99.90;;;17.37;65.43;95627.44;6175359;23;20405;-55
2022/09/06 00:48:32;;;;;;;3.57;3.30;;;17.00;99.90;;;17.34;65.40;95628.59;6175384;23;20484;-56
2022/09/06 00:51:01;;;;;;;13.87;3.40;;;17.00;99.90;;;17.33;65.48;95624.25;6175828;23;20402;-55
2022/09/06 00:53:29;;;;;;;5.73;3.67;;;17.00;99.90;;;17.32;65.57;95624.41;6175282;23;20898;-57
2022/09/06 00:55:58;;;;;;;5.77;3.67;;;17.00;99.90;;;17.30;65.77;95627.25;6175294;23;20413;-56
2022/09/06 00:58:25;;;;;;;6.77;3.97;;;16.90;99.90;;;17.28;65.76;95628.41;6175177;23;20957;-53
2022/09/06 01:00:52;;;;;;;4.07;3.67;;;16.90;99.90;;;17.26;65.32;95625.91;6175946;23;20464;-56
2022/09/06 01:03:19;;;;;;;4.33;3.70;;;16.90;99.90;;;17.26;65.53;95630.38;6174658;23;21005;-55
2022/09/06 01:05:54;;;;;;;3.70;3.00;;;16.90;99.90;;;17.22;65.55;95623.75;6175589;23;20401;-56
2022/09/06 01:08:30;;;;;;;4.50;3.43;;;16.90;99.90;;;17.19;65.39;95628.38;6174787;23;20479;-56
2022/09/06 01:11:27;;;;;;;4.23;3.83;;;16.90;99.90;;;17.17;65.89;95626.91;6176436;23;20480;-55
2022/09/06 01:14:00;;;;;;;5.53;3.50;;;16.80;99.90;;;17.14;65.33;95627.22;6168963;23;20541;-56
2022/09/06 01:16:34;;;;;;;5.07;3.90;;;16.80;99.90;;;17.12;65.42;95630.03;6175867;23;20393;-56
2022/09/06 01:19:30;;;;;;;3.83;3.03;;;16.80;99.90;;;17.09;66.05;95625.03;6175693;23;20430;-56
2022/09/06 01:22:07;;;;;;;4.33;3.83;;;16.70;99.90;;;17.05;65.54;95626.34;6175262;23;20441;-55
2022/09/06 01:24:58;;;;;;;6.03;4.10;;;16.70;99.90;;;17.01;65.98;95623.19;6175606;23;20456;-56
2022/09/06 01:28:17;;;;;;;6.70;3.97;;;16.70;99.90;;;16.97;65.97;95626.34;6176202;23;20417;-56
2022/09/06 01:30:47;;;;;;;6.87;3.80;;;16.60;99.90;;;16.95;65.95;95623.00;6175336;23;20941;-55
2022/09/06 01:33:19;;;;;;;8.20;3.50;;;16.60;99.90;;;16.90;65.90;95620.84;6176137;23;20797;-54
2022/09/06 01:35:50;;;;;;;4.10;3.80;;;16.60;99.90;;;16.86;66.31;95624.78;6175493;23;20468;-55
2022/09/06 01:38:17;;;;;;;7.37;4.23;;;16.60;99.90;;;16.83;nan;95622.44;6175024;23;20398;-55
2022/09/06 01:40:45;;;;;;;3.97;3.57;;;16.50;99.90;;;16.81;66.34;95617.28;6175168;23;20409;-54
2022/09/06 01:43:22;;;;;;;7.33;3.13;;;16.50;99.90;;;16.80;66.63;95617.44;6174054;23;20499;-54
2022/09/06 01:45:56;;;;;;;18.40;3.67;;;16.50;99.90;;;16.78;66.82;95611.47;6175542;23;20389;-54
2022/09/06 01:48:29;;;;;;;4.07;3.77;;;16.50;99.90;;;16.78;66.64;95614.13;6175086;23;20462;-54
2022/09/06 01:51:05;;;;;;;5.10;3.90;;;16.50;99.90;;;16.76;66.89;95608.97;6174785;23;20914;-57
2022/09/06 01:53:49;;;;;;;4.50;4.03;;;16.40;99.90;;;16.74;66.82;95605.59;6174299;23;20429;-56
2022/09/06 01:56:25;;;;;;;5.13;3.70;;;16.40;99.90;;;16.72;66.76;95604.13;6175958;23;20401;-54
2022/09/06 01:59:04;;;;;;;5.93;4.27;;;16.40;99.90;;;16.71;66.96;95605.09;6176302;23;20487;-55
2022/09/06 02:01:35;;;;;;;5.00;4.23;;;16.40;99.90;;;16.69;67.20;95605.28;6176205;23;20471;-54
2022/09/06 02:04:08;;;;;;;4.77;3.73;;;16.40;99.90;;;16.69;67.06;95602.59;6176995;23;20426;-56
2022/09/06 02:06:40;;;;;;;8.03;3.63;;;16.40;99.90;;;16.68;67.15;95603.59;6176161;23;20479;-55
2022/09/06 02:09:08;;;;;;;4.07;3.80;;;16.30;99.90;;;16.66;67.26;95597.63;6177029;23;20755;-56
2022/09/06 02:11:38;;;;;;;7.40;4.27;;;16.30;99.90;;;16.66;67.09;95603.75;6175540;23;20448;-56
2022/09/06 02:14:09;;;;;;;5.87;4.27;;;16.30;99.90;;;16.65;67.39;95598.59;6175830;23;20484;-55
2022/09/06 02:16:36;;;;;;;4.47;3.90;;;16.30;99.90;;;16.64;67.53;95602.25;6176998;23;20394;-55
2022/09/06 02:19:08;;;;;;;5.13;4.23;;;16.30;99.90;;;16.61;67.46;95590.13;6176226;23;20431;-54
2022/09/06 02:21:38;;;;;;;4.13;3.67;;;16.30;99.90;;;16.62;67.54;95601.56;6175597;23;20488;-55
2022/09/06 02:24:07;;;;;;;6.53;4.27;;;16.30;99.90;;;16.60;67.33;95604.38;6175798;23;20592;-56
2022/09/06 02:26:36;;;;;;;10.80;3.80;;;16.30;99.90;;;16.59;67.49;95601.88;6176798;23;21016;-54
2022/09/06 02:29:04;;;;;;;4.90;3.80;;;16.30;99.90;;;16.57;67.45;95598.56;6176501;23;20421;-56
2022/09/06 02:31:34;;;;;;;7.23;3.73;;;16.30;99.90;;;16.56;67.48;95602.22;6175848;23;20947;-53
2022/09/06 02:34:02;;;;;;;4.40;3.57;;;16.30;99.90;;;16.54;67.76;95604.19;6176218;23;20759;-55
2022/09/06 02:36:30;;;;;;;5.10;3.13;;;16.20;99.90;;;16.52;67.71;95601.69;6175596;23;20488;-56
2022/09/06 02:38:59;;;;;;;4.30;3.90;;;16.20;99.90;;;16.51;67.78;95608.00;6176523;23;20429;-57
2022/09/06 02:41:26;;;;;;;5.80;3.47;;;16.20;99.90;;;16.50;67.73;95609.00;6175959;23;20767;-56
2022/09/06 02:43:53;;;;;;;6.80;3.80;;;16.20;99.90;;;16.49;67.94;95608.16;6175911;23;20562;-55
2022/09/06 02:46:22;;;;;;;4.10;3.80;;;16.20;99.90;;;16.48;67.57;95616.28;6176719;23;20808;-55
2022/09/06 02:48:51;;;;;;;6.73;4.60;;;16.10;99.90;;;16.47;67.98;95618.09;6176690;23;20418;-56
2022/09/06 02:51:19;;;;;;;4.37;4.07;;;16.20;99.90;;;16.46;67.72;95611.13;6175498;23;20402;-53
2022/09/06 02:53:46;;;;;;;5.00;4.60;;;16.10;99.90;;;16.45;68.17;95608.63;6176550;23;20843;-56
2022/09/06 02:56:13;;;;;;;5.33;4.53;;;16.10;99.90;;;16.44;67.94;95614.94;6176195;23;20981;-55
2022/09/06 02:58:41;;;;;;;6.10;4.77;;;16.10;99.90;;;16.42;68.10;95599.16;6175511;23;20429;-54
2022/09/06 03:01:08;;;;;;;4.77;4.37;;;16.10;99.90;;;16.40;68.13;95601.13;6175141;23;20397;-59
2022/09/06 03:03:35;;;;;;;5.97;4.30;;;16.10;99.90;;;16.39;67.98;95602.16;6176552;23;20449;-54
2022/09/06 03:06:04;;;;;;;5.50;5.00;;;16.10;99.90;;;16.38;68.28;95608.44;6175376;23;20409;-52
2022/09/06 03:08:33;;;;;;;4.03;3.70;;;16.00;99.90;;;16.36;68.04;95607.78;6176354;23;20445;-58
2022/09/06 03:11:00;;;;;;;5.00;4.50;;;16.00;99.90;;;16.37;68.23;95605.94;6176261;23;20488;-56
2022/09/06 03:13:27;;;;;;;4.43;4.03;;;16.10;99.90;;;16.36;68.20;95612.22;6175481;23;21036;-56
2022/09/06 03:15:56;;;;;;;7.60;5.03;;;16.00;99.90;;;16.35;68.07;95605.28;6176318;23;20524;-54
2022/09/06 03:18:23;;;;;;;4.33;3.87;;;16.00;99.90;;;16.35;68.26;95608.75;6176031;23;20417;-56
2022/09/06 03:20:50;;;;;;;4.30;3.90;;;16.00;99.90;;;16.33;68.36;95608.09;6176044;23;20509;-56
2022/09/06 03:23:19;;;;;;;5.03;3.90;;;16.00;99.90;;;16.33;68.23;95613.38;6175300;23;20445;-55
2022/09/06 03:25:46;;;;;;;5.07;4.10;;;16.00;99.90;;;16.32;68.31;95614.38;6175389;23;20413;-56
2022/09/06 03:28:13;;;;;;;4.03;3.73;;;16.00;99.90;;;16.34;68.37;95617.69;6175664;23;20741;-57
2022/09/06 03:30:41;;;;;;;5.37;4.57;;;16.00;99.90;;;16.33;68.01;95613.38;6176114;23;20871;-57
2022/09/06 03:33:08;;;;;;;4.43;4.03;;;16.00;99.90;;;16.34;68.26;95617.69;6175527;23;20405;-57
2022/09/06 03:35:35;;;;;;;5.57;4.77;;;16.00;99.90;;;16.35;68.09;95621.19;6173106;23;20918;-54
2022/09/06 03:38:02;;;;;;;4.80;3.83;;;16.00;99.90;;;16.34;67.89;95625.66;6176681;23;20464;-56
2022/09/06 03:40:31;;;;;;;4.07;3.77;;;16.00;99.90;;;16.32;67.80;95625.00;6174577;23;20937;-53
2022/09/06 03:42:58;;;;;;;9.93;4.10;;;16.00;99.90;;;16.31;67.67;95623.31;6175555;23;20445;-56
2022/09/06 03:45:25;;;;;;;5.33;4.07;;;16.00;99.90;;;16.27;67.34;95620.16;6175290;23;20405;-55
2022/09/06 03:47:52;;;;;;;4.47;4.07;;;16.00;99.90;;;16.25;67.42;95621.28;6174882;23;20405;-54
2022/09/06 03:50:20;;;;;;;9.67;4.27;;;15.90;99.90;;;16.20;67.13;95624.41;6176061;23;20484;-54
2022/09/06 03:52:47;;;;;;;6.20;4.40;;;15.90;99.90;;;16.17;67.21;95626.56;6175923;23;20464;-55
2022/09/06 03:55:14;;;;;;;9.63;4.70;;;15.90;99.90;;;16.13;67.24;95624.22;6174132;23;20432;-53
2022/09/06 03:57:43;;;;;;;4.73;4.33;;;15.80;99.90;;;16.09;67.02;95622.03;6175473;23;20405;-54
2022/09/06 04:00:11;;;;;;;4.37;4.07;;;15.80;99.90;;;16.03;67.20;95631.41;6173728;23;20422;-57
2022/09/06 04:02:39;;;;;;;4.00;3.50;;;15.80;99.90;;;15.99;67.35;95631.88;6175330;23;20445;-54
2022/09/06 04:05:07;;;;;;;5.63;3.40;;;15.70;99.90;;;15.93;67.37;95634.19;6174621;23;20515;-55
2022/09/06 04:07:36;;;;;;;4.33;3.93;;;15.70;99.90;;;15.87;67.42;95631.31;6175288;23;20470;-52
2022/09/06 04:10:05;;;;;;;9.87;4.23;;;15.60;99.90;;;15.84;67.34;95634.28;6174861;23;21025;-57
2022/09/06 04:12:33;;;;;;;4.10;3.80;;;15.60;99.90;;;15.82;67.89;95630.91;6177013;23;20433;-55
2022/09/06 04:15:03;;;;;;;10.03;4.73;;;15.50;99.90;;;15.81;67.51;95626.63;6176049;23;20429;-56
2022/09/06 04:17:31;;;;;;;7.57;4.27;;;15.50;99.90;;;15.80;68.07;95628.44;6175951;23;20421;-53
2022/09/06 04:19:58;;;;;;;5.80;3.50;;;15.50;99.90;;;15.81;67.90;95631.94;6173996;23;20421;-55
2022/09/06 04:22:25;;;;;;;5.93;5.30;;;15.50;99.90;;;15.81;68.05;95626.63;6174689;23;20440;-54
2022/09/06 04:24:52;;;;;;;5.43;4.93;;;15.50;99.90;;;15.82;68.08;95626.47;6174866;23;20525;-55
2022/09/06 04:27:19;;;;;;;6.07;4.80;;;15.50;99.90;;;15.83;68.31;95633.41;6175308;23;20418;-55
2022/09/06 04:29:47;;;;;;;6.30;5.13;;;15.50;99.90;;;15.84;68.38;95627.13;6177191;23;20487;-56
2022/09/06 04:32:15;;;;;;;10.70;5.30;;;15.50;99.90;;;15.86;68.29;95627.00;6174030;23;20398;-56
2022/09/06 04:34:42;;;;;;;6.63;4.40;;;15.60;99.90;;;15.88;68.45;95630.31;6174437;23;20437;-56
2022/09/06 04:37:10;;;;;;;13.83;4.43;;;15.60;99.90;;;15.95;68.81;95626.88;6174304;23;20412;-56
2022/09/06 04:39:37;;;;;;;12.50;4.43;;;15.60;99.90;;;16.18;68.28;95629.03;6175147;23;20436;-54
2022/09/06 04:42:05;;;;;;;6.63;5.17;;;15.80;99.90;;;16.36;68.04;95634.31;6174529;23;20970;-56
2022/09/06 04:44:32;;;;;;;5.40;4.40;;;16.00;99.90;;;16.43;67.85;95635.34;6175220;23;20453;-55
2022/09/06 04:47:05;;;;;;;6.53;4.93;;;16.10;99.90;;;16.54;67.65;95630.75;6175021;23;20409;-56
2022/09/06 04:49:33;;;;;;;7.10;5.10;;;16.20;99.90;;;16.64;67.28;95632.31;6175548;23;20433;-57
2022/09/06 04:52:01;;;;;;;13.03;4.37;;;16.30;99.90;;;16.72;67.16;95628.03;6175183;23;20806;-56
2022/09/06 04:54:28;;;;;;;6.77;5.70;;;16.40;99.90;;;16.75;67.13;95628.53;6174722;23;20510;-56
2022/09/06 04:56:56;;;;;;;4.17;3.80;;;16.40;99.90;;;16.76;67.58;95630.22;6176546;23;20406;-54
2022/09/06 04:59:23;;;;;;;19.43;5.00;;;16.50;99.90;;;16.78;67.21;95630.06;6175906;23;20417;-56
2022/09/06 05:01:50;;;;;;;7.17;4.60;;;16.50;99.90;;;16.79;67.68;95634.34;6175084;23;20405;-56
2022/09/06 05:04:18;;;;;;;5.17;4.40;;;16.50;99.90;;;16.80;67.51;95628.06;6175041;23;20527;-56
2022/09/06 05:06:46;;;;;;;5.17;4.67;;;16.50;99.90;;;16.84;67.42;95627.59;6176008;23;20420;-58
2022/09/06 05:09:13;;;;;;;4.97;4.57;;;16.50;99.90;;;16.87;67.30;95630.94;6176009;23;20417;-57
2022/09/06 05:11:41;;;;;;;7.70;5.00;;;16.50;99.90;;;16.93;67.53;95631.16;6176175;23;20401;-55
2022/09/06 05:14:08;;;;;;;10.47;5.20;;;16.60;99.90;;;17.01;67.16;95619.72;6175913;23;20513;-55
2022/09/06 05:16:35;;;;;;;7.80;5.70;;;16.70;99.90;;;17.11;67.60;95628.38;6175787;23;20402;-56
2022/09/06 05:19:02;;;;;;;6.47;4.60;;;16.70;99.90;;;17.20;66.92;95626.56;6176058;23;20499;-54
2022/09/06 05:21:30;;;;;;;12.73;5.47;;;16.80;99.90;;;17.29;66.82;95630.06;6175422;23;20401;-56
2022/09/06 05:23:58;;;;;;;6.23;5.57;;;16.90;99.90;;;17.36;67.19;95631.91;6174801;23;20715;-55
2022/09/06 05:26:25;;;;;;;4.57;3.93;;;17.00;99.90;;;17.45;66.42;95619.47;6175928;23;20410;-55
2022/09/06 05:28:53;;;;;;;10.67;5.17;;;17.10;99.90;;;17.56;66.69;95632.44;6175917;23;20950;-55
2022/09/06 05:31:27;;;;;;;11.70;4.97;;;17.20;99.90;;;17.68;66.11;95622.31;6175270;23;20497;-55
2022/09/06 05:33:55;;;;;;;6.43;4.83;;;17.30;99.90;;;17.81;65.80;95621.00;6177292;23;20862;-54
2022/09/06 05:36:22;;;;;;;4.87;4.47;;;17.40;99.90;;;17.98;66.02;95624.53;6177365;23;20493;-55
2022/09/06 05:38:50;;;;;;;5.43;4.80;;;17.50;99.90;;;18.19;65.63;95630.16;6177605;23;20826;-57
2022/09/06 05:41:18;;;;;;;4.60;4.20;;;17.70;99.90;;;18.47;65.07;95624.47;6177537;23;20405;-57
2022/09/06 05:43:46;;;;;;;5.70;4.20;;;17.90;99.90;;;18.71;64.15;95630.72;6178104;23;20874;-55
2022/09/06 05:46:13;;;;;;;28.03;5.30;;;18.20;99.90;;;18.95;64.37;95628.00;6176737;23;20405;-55
2022/09/06 05:48:40;;;;;;;4.50;4.10;;;18.40;99.90;;;19.18;63.75;95621.91;6178032;23;20426;-55
2022/09/06 05:51:11;;;;;;;5.90;4.60;;;18.70;99.90;;;19.40;63.26;95624.78;6176841;23;20409;-58
2022/09/06 05:53:39;;;;;;;15.37;4.23;;;18.80;99.90;;;19.62;62.37;95621.28;6176698;23;20504;-56
2022/09/06 05:56:07;;;;;;;4.70;4.20;;;19.10;99.70;;;19.82;61.92;95613.66;6176486;23;20476;-58
2022/09/06 05:58:37;;;;;;;5.30;4.80;;;19.30;99.00;;;20.04;61.47;95619.97;6176723;23;20417;-57
2022/09/06 06:01:08;;;;;;;4.97;4.40;;;19.50;99.10;;;20.26;60.57;95609.44;6175880;23;20513;-58
2022/09/06 06:03:35;;;;;;;11.50;5.10;;;19.70;98.60;;;20.45;60.24;95607.25;6176855;23;20449;-58
2022/09/06 06:06:02;;;;;;;5.23;4.83;;;19.90;98.40;;;20.63;60.16;95612.25;6178211;23;20401;-58
2022/09/06 06:08:29;;;;;;;6.20;5.30;;;20.10;98.10;;;20.81;59.19;95609.25;6176544;23;20429;-54
2022/09/06 06:11:00;;;;;;;10.73;4.23;;;20.30;97.40;;;21.01;59.28;95609.50;6177143;23;20456;-58
2022/09/06 06:13:28;;;;;;;7.73;5.50;;;20.50;97.20;;;21.16;58.52;95609.44;6177248;23;20516;-54
2022/09/06 06:15:57;;;;;;;5.00;4.57;;;20.60;96.90;;;21.33;58.19;95610.88;6176417;23;20409;-57
2022/09/06 06:18:24;;;;;;;9.53;4.90;;;20.80;96.60;;;21.48;57.72;95603.63;6176169;23;20480;-55
2022/09/06 06:20:51;;;;;;;11.53;5.30;;;20.90;96.30;;;21.65;57.88;95604.25;6175698;23;20406;-56
2022/09/06 06:23:18;;;;;;;8.57;5.67;;;21.00;96.00;;;21.81;57.12;95603.19;6176325;23;20545;-56
2022/09/06 06:25:46;;;;;;;7.10;4.70;;;21.20;95.70;;;21.92;56.34;95603.69;6178061;23;20406;-55
2022/09/06 06:28:13;;;;;;;11.50;5.00;;;21.40;95.10;;;22.04;56.59;95599.47;6176291;23;20406;-55
2022/09/06 06:30:40;;;;;;;8.57;5.60;;;21.50;94.90;;;22.23;55.81;95597.97;6175103;23;20937;-56
2022/09/06 06:33:09;;;;;;;7.00;5.23;;;21.70;94.90;;;22.47;55.37;95603.94;6174888;23;20405;-56
2022/09/06 06:35:36;;;;;;;9.23;5.03;;;21.90;94.80;;;22.69;55.14;95604.69;6175647;23;20825;-53
2022/09/06 06:38:03;;;;;;;7.70;5.53;;;22.10;94.40;;;22.92;55.37;95599.03;6176652;23;20398;-56
2022/09/06 06:40:30;;;;;;;7.17;5.00;;;22.30;94.00;;;23.15;54.74;95595.25;6176173;23;20490;-56
2022/09/06 06:42:57;;;;;;;6.63;4.50;;;22.50;93.80;;;23.39;54.33;95592.03;6175428;23;20476;-55
2022/09/06 06:45:25;;;;;;;6.60;5.10;;;22.80;93.30;;;23.65;53.38;95597.66;6176819;23;20405;-54
2022/09/06 06:47:52;;;;;;;10.93;5.70;;;23.00;93.00;;;23.91;53.02;95602.28;6177094;23;20409;-55
2022/09/06 06:50:21;;;;;;;6.67;5.20;;;23.20;92.20;;;24.05;51.88;95597.75;6175076;23;20426;-56
2022/09/06 06:52:48;;;;;;;5.23;4.73;;;23.40;91.30;;;24.16;52.02;95599.81;6176120;23;20421;-56
2022/09/06 06:55:15;;;;;;;7.17;5.17;;;23.50;90.80;;;24.15;51.16;95593.63;6176690;23;20417;-59
2022/09/06 06:57:43;;;;;;;5.37;4.87;;;23.60;90.40;;;24.26;51.67;95599.38;6176240;23;20890;-56
2022/09/06 07:00:12;;;;;;;5.63;4.87;;;23.60;90.40;;;24.45;51.33;95597.75;6177007;23;20428;-55
2022/09/06 07:02:39;;;;;;;4.67;4.37;;;23.80;90.30;;;24.72;51.28;95600.41;6176896;23;20441;-59
2022/09/06 07:05:07;;;;;;;12.80;4.90;;;24.00;90.10;;;25.04;50.64;95606.72;6176538;23;20449;-58
2022/09/06 07:07:36;;;;;;;7.23;5.17;;;24.30;89.50;;;25.35;50.24;95597.94;6176665;23;20520;-59
2022/09/06 07:10:03;;;;;;;8.37;5.00;;;24.70;88.60;;;25.67;49.57;95603.38;6176419;23;20504;-56
2022/09/06 07:12:30;;;;;;;6.10;5.40;;;25.00;87.60;;;26.01;48.97;95595.06;6177018;23;20723;-56
2022/09/06 07:14:57;;;;;;;6.40;4.67;;;25.30;86.30;;;26.30;48.11;95604.38;6177540;23;20425;-55
2022/09/06 07:17:25;;;;;;;7.80;4.93;;;25.60;84.70;;;26.62;47.45;95607.00;6176277;23;20396;-56
2022/09/06 07:19:52;;;;;;;12.80;5.10;;;25.90;82.70;;;26.89;47.13;95602.19;6176797;23;20425;-56
2022/09/06 07:22:19;;;;;;;11.40;5.20;;;26.20;81.70;;;27.18;46.65;95606.00;6176240;23;21001;-53
2022/09/06 07:24:48;;;;;;;10.93;5.03;;;26.50;80.60;;;27.48;46.30;95610.66;6176449;23;20452;-57
2022/09/06 07:27:15;;;;;;;5.60;5.10;;;26.70;78.80;;;27.78;45.58;95604.44;6176282;23;20459;-57
2022/09/06 07:29:42;;;;;;;8.20;5.43;;;27.00;77.10;;;28.05;44.77;95604.06;6176284;23;20452;-54
2022/09/06 07:32:09;;;;;;;8.40;5.70;;;27.40;76.10;;;28.28;44.42;95602.47;6174461;23;20499;-54
2022/09/06 07:34:38;;;;;;;12.20;5.83;;;27.60;73.30;;;28.39;44.13;95609.75;6176887;23;20967;-58
2022/09/06 07:37:05;;;;;;;6.33;5.20;;;27.70;72.70;;;28.65;44.06;95607.69;6176166;23;20406;-53
2022/09/06 07:39:33;;;;;;;7.70;6.10;;;27.90;71.60;;;28.90;42.98;95616.38;6176829;23;20425;-55
2022/09/06 07:42:01;;;;;;;15.07;7.00;;;28.10;69.70;;;29.03;42.04;95603.66;6175818;23;20407;-54
2022/09/06 07:44:29;;;;;;;11.10;6.47;;;28.30;67.80;;;29.16;42.38;95603.41;6176510;23;20683;-54
2022/09/06 07:46:56;;;;;;;7.40;5.30;;;28.40;66.90;;;29.24;42.14;95605.75;6176264;23;20487;-56
2022/09/06 07:49:23;;;;;;;7.73;5.90;;;28.60;65.70;;;29.32;41.94;95608.06;6176404;23;20425;-58
2022/09/06 07:51:50;;;;;;;8.03;6.13;;;28.80;64.70;;;29.40;42.07;95603.34;6175483;23;20405;-57
2022/09/06 07:54:17;;;;;;;7.53;4.97;;;28.90;64.50;;;29.67;41.98;95607.13;6176090;23;20425;-57
2022/09/06 07:56:45;;;;;;;9.63;4.97;;;29.20;64.30;;;30.09;41.34;95600.59;6176907;23;20401;-54
2022/09/06 07:59:13;;;;;;;10.97;6.27;;;29.60;63.60;;;30.46;40.31;95600.16;6175834;23;20424;-54
2022/09/06 08:01:41;;;;;;;6.57;5.90;;;30.10;62.00;;;30.68;40.07;95602.91;6176104;23;20401;-57
2022/09/06 08:04:09;;;;;;;12.33;6.67;;;30.40;60.20;;;30.72;39.57;95593.22;6175920;23;20452;-55
2022/09/06 08:06:37;;;;;;;10.70;6.60;;;30.50;58.30;;;30.54;38.92;95597.00;6175760;23;20228;-55
2022/09/06 08:09:06;;;;;;;6.23;5.10;;;30.40;57.40;;;30.21;39.21;95592.38;6176092;23;20425;-53
2022/09/06 08:11:34;;;;;;;8.83;4.80;;;30.00;57.50;;;30.15;39.93;95587.94;6176448;23;20912;-55
2022/09/06 08:14:03;;;;;;;15.30;5.83;;;29.90;57.90;;;30.43;39.53;95594.38;6175805;23;20421;-54
2022/09/06 08:16:32;;;;;;;7.80;5.60;;;30.00;58.20;;;30.77;39.36;95588.91;6176120;23;20178;-54
2022/09/06 08:19:01;;;;;;;12.23;5.77;;;30.40;57.80;;;31.12;38.33;95591.31;6175195;23;20429;-57
2022/09/06 08:21:30;;;;;;;13.63;5.80;;;30.80;56.80;;;31.32;38.32;95590.75;6176017;23;20240;-53
2022/09/06 08:23:59;;;;;;;6.23;5.17;;;31.10;56.20;;;31.57;38.28;95595.72;6175675;23;20201;-58
2022/09/06 08:26:27;;;;;;;15.67;5.90;;;31.40;55.60;;;31.70;37.55;95583.59;6175871;23;20623;-55
2022/09/06 08:28:56;;;;;;;8.80;5.83;;;31.70;54.40;;;31.61;37.14;95590.56;6177082;23;20189;-58
2022/09/06 08:31:23;;;;;;;6.97;6.33;;;31.70;53.70;;;31.61;36.99;95585.13;6175028;23;20173;-56
2022/09/06 08:33:52;;;;;;;7.93;5.23;;;31.70;53.10;;;31.60;36.79;95580.75;6175390;23;20271;-54
2022/09/06 08:36:19;;;;;;;6.57;5.90;;;31.70;53.00;;;31.75;36.65;95578.19;6176012;23;20631;-55
2022/09/06 08:38:46;;;;;;;8.30;5.40;;;31.80;52.50;;;31.89;35.80;95569.63;6175491;23;20190;-59
2022/09/06 08:41:23;;;;;;;8.57;6.57;;;31.80;52.40;;;31.93;35.86;95573.47;6175838;23;20165;-54
2022/09/06 08:43:54;;;;;;;18.17;6.80;;;31.90;51.80;;;31.86;36.10;95570.16;6175814;23;20307;-55
2022/09/06 08:46:22;;;;;;;6.10;5.30;;;31.70;51.90;;;31.94;36.53;95570.50;6176604;23;20170;-57
2022/09/06 08:48:51;;;;;;;11.73;5.40;;;31.60;52.40;;;32.15;36.22;95566.09;6176481;23;20256;-57
2022/09/06 08:51:54;;;;;;;11.70;5.80;;;31.70;52.60;;;32.40;36.00;95556.47;6176049;23;20272;-53
2022/09/06 08:54:26;;;;;;;5.70;4.70;;;31.90;52.10;;;32.64;35.71;95553.34;6175713;23;20213;-55
2022/09/06 08:57:03;;;;;;;5.27;4.70;;;32.10;52.10;;;32.88;35.11;95562.78;6176323;23;20165;-59
2022/09/06 08:59:33;;;;;;;15.63;6.10;;;32.30;51.70;;;33.09;35.31;95551.97;6175859;23;20197;-58
2022/09/06 09:02:09;;;;;;;14.07;7.80;;;32.50;51.50;;;33.20;34.55;95547.44;6176257;23;20158;-57
2022/09/06 09:04:41;;;;;;;9.03;6.20;;;32.60;51.30;;;33.05;34.59;95548.16;6175535;23;20666;-56
2022/09/06 09:07:32;;;;;;;6.30;5.30;;;32.50;49.50;;;32.67;33.35;95540.09;6177292;23;20157;-53
2022/09/06 09:09:59;;;;;;;14.00;5.30;;;32.30;48.80;;;32.29;34.57;95533.00;6177975;23;20197;-58
2022/09/06 09:12:28;;;;;;;7.73;5.43;;;31.90;49.00;;;32.05;35.00;95530.59;6177745;23;20169;-55
2022/09/06 09:14:59;;;;;;;6.80;5.00;;;31.60;49.50;;;31.83;35.13;95521.69;6176214;23;20189;-58
2022/09/06 09:17:28;;;;;;;7.53;4.87;;;31.40;49.80;;;31.79;35.07;95524.09;6176655;23;20162;-53
2022/09/06 09:19:57;;;;;;;5.77;5.23;;;31.20;50.40;;;31.78;35.37;95523.28;6175860;23;20537;-57
2022/09/06 09:22:25;;;;;;;9.43;6.03;;;31.10;50.30;;;31.64;35.02;95514.72;6177504;23;20240;-57
2022/09/06 09:24:52;;;;;;;5.73;4.70;;;31.00;50.00;;;31.56;35.11;95508.94;6175898;23;20232;-53
2022/09/06 09:27:21;;;;;;;8.10;4.67;;;30.90;50.50;;;31.71;35.27;95511.78;6176186;23;20197;-55
2022/09/06 09:30:00;;;;;;;3.63;3.30;;;31.00;50.90;;;31.99;34.73;95507.13;6175949;23;20189;-53
2022/09/06 09:32:32;;;;;;;7.23;4.33;;;31.20;50.40;;;32.19;34.47;95511.94;6175447;23;20350;-58
2022/09/06 09:35:32;;;;;;;4.90;4.40;;;31.40;50.00;;;32.30;34.17;95500.06;6175600;23;20813;-55
2022/09/06 09:38:04;;;;;;;4.60;4.20;;;31.50;49.30;;;32.40;33.88;95507.47;6176510;23;20170;-54
2022/09/06 09:40:35;;;;;;;4.77;4.47;;;31.70;49.10;;;32.31;33.43;95498.97;6175976;23;20269;-55
2022/09/06 09:43:20;;;;;;;5.00;4.60;;;31.60;48.60;;;31.95;33.68;95489.69;6175647;23;20162;-54
2022/09/06 09:45:57;;;;;;;5.60;3.70;;;31.40;48.00;;;31.86;34.42;95493.97;6175948;23;20639;-57
2022/09/06 09:48:26;;;;;;;4.93;4.27;;;31.30;49.00;;;31.85;34.50;95486.88;6176311;23;20271;-53
2022/09/06 09:50:55;;;;;;;11.37;4.20;;;31.20;49.30;;;31.92;34.63;95495.66;6175892;23;20926;-55
2022/09/06 09:53:24;;;;;;;5.30;4.57;;;31.20;49.50;;;32.10;34.41;95492.56;6175942;23;20221;-58
2022/09/06 09:55:56;;;;;;;15.80;5.13;;;31.30;49.60;;;32.27;34.74;95486.13;6176401;23;20170;-56
2022/09/06 09:58:32;;;;;;;5.70;4.53;;;31.50;49.60;;;32.44;33.58;95488.69;6176724;23;20252;-58
2022/09/06 10:01:17;;;;;;;5.37;4.87;;;31.70;48.20;;;32.42;33.57;95483.50;6176793;23;20594;-60
2022/09/06 10:03:44;;;;;;;6.20;5.50;;;31.70;48.00;;;32.31;33.75;95481.81;6177669;23;20201;-57
2022/09/06 10:06:14;;;;;;;4.87;4.50;;;31.60;48.30;;;32.26;34.34;95474.44;6175609;23;20602;-57
2022/09/06 10:08:43;;;;;;;4.30;4.10;;;31.60;48.70;;;32.36;33.73;95479.13;6176230;23;20268;-60
2022/09/06 10:11:13;;;;;;;5.57;4.97;;;31.60;48.80;;;32.44;34.00;95465.03;6176098;23;20257;-58
2022/09/06 10:13:42;;;;;;;4.70;4.30;;;31.70;48.40;;;32.49;33.90;95470.47;6175822;23;20265;-56
2022/09/06 10:16:09;;;;;;;10.90;4.15;;;31.80;48.30;;;32.58;33.84;95467.25;6176207;23;20170;-55
2022/09/06 10:18:38;;;;;;;4.72;4.35;;;31.80;48.10;;;32.66;33.69;95464.88;6176463;23;20189;-57
2022/09/06 10:21:06;;;;;;;4.90;4.50;;;31.90;47.70;;;32.76;33.21;95461.38;6176690;23;20173;-56
2022/09/06 10:23:48;;;;;;;4.45;4.15;;;32.00;47.30;;;32.86;32.33;95460.63;6176811;23;20271;-55
2022/09/06 10:26:19;;;;;;;3.92;3.72;;;32.10;46.40;;;32.85;32.60;95465.22;6177235;23;20189;-56
2022/09/06 10:28:46;;;;;;;4.85;4.43;;;32.20;46.50;;;32.82;32.58;95460.31;6177027;23;20244;-57